Time;durP1;ratioP1;P1;durP2;ratioP2;P2;SDS_P1;SDS_P2;PMS_P1;PMS_P2;Temp;Humidity;BMP_temperature;BMP_pressure;BME280_temperature;BME280_humidity;BME280_pressure;Samples;Min_cycle;Max_cycle;Signal;HPM_P1;HPM_P2
2022/09/02 00:01:34;;;;;;;6.18;3.47;;;23.80;58.20;;;;;;5053477;28;20470;-72
2022/09/02 00:04:04;;;;;;;5.97;3.22;;;23.80;58.20;;;;;;5053150;28;20061;-68
2022/09/02 00:06:30;;;;;;;6.30;3.13;;;23.90;58.30;;;;;;5052983;28;20466;-72
2022/09/02 00:08:57;;;;;;;5.43;2.95;;;23.90;58.30;;;;;;5051835;28;20489;-72
2022/09/02 00:11:31;;;;;;;5.65;2.90;;;24.00;58.20;;;;;;5053121;28;20028;-70
2022/09/02 00:13:59;;;;;;;8.50;3.58;;;23.70;58.50;;;;;;5053164;28;20059;-71
2022/09/02 00:16:25;;;;;;;9.13;3.30;;;23.60;58.90;;;;;;5053128;28;20021;-72
2022/09/02 00:18:52;;;;;;;7.53;3.90;;;23.50;59.30;;;;;;5053061;28;20055;-71
2022/09/02 00:21:19;;;;;;;7.45;3.45;;;23.50;59.20;;;;;;5052595;28;20029;-72
2022/09/02 00:23:45;;;;;;;7.53;3.45;;;23.60;59.10;;;;;;5053145;28;20071;-72
2022/09/02 00:26:12;;;;;;;10.75;3.65;;;23.60;59.10;;;;;;5053090;28;20037;-72
2022/09/02 00:28:39;;;;;;;8.38;3.67;;;23.70;58.90;;;;;;5052853;28;20458;-72
2022/09/02 00:31:05;;;;;;;5.90;3.40;;;23.70;58.90;;;;;;5052940;28;20252;-72
2022/09/02 00:33:31;;;;;;;5.65;3.35;;;23.70;58.90;;;;;;5052963;28;20534;-66
2022/09/02 00:36:01;;;;;;;8.75;3.83;;;23.60;58.90;;;;;;5052641;28;20092;-72
2022/09/02 00:38:28;;;;;;;8.70;3.78;;;23.80;58.60;;;;;;5052755;28;20082;-70
2022/09/02 00:40:54;;;;;;;8.38;3.45;;;23.60;59.60;;;;;;5052876;28;20029;-73
2022/09/02 00:43:39;;;;;;;9.00;3.80;;;23.60;59.10;;;;;;5052755;28;20028;-72
2022/09/02 00:46:05;;;;;;;9.02;4.25;;;23.60;59.30;;;;;;5052804;28;20092;-73
2022/09/02 00:48:31;;;;;;;9.10;3.85;;;23.70;59.00;;;;;;5052584;28;20533;-73
2022/09/02 00:50:57;;;;;;;12.65;4.25;;;23.70;58.90;;;;;;5052581;28;20028;-73
2022/09/02 00:53:24;;;;;;;6.57;3.90;;;23.60;59.70;;;;;;5052657;28;20378;-73
2022/09/02 00:55:51;;;;;;;6.65;3.80;;;23.60;59.10;;;;;;5052743;28;20020;-72
2022/09/02 00:58:30;;;;;;;7.32;3.65;;;23.60;59.20;;;;;;5052605;28;20497;-71
2022/09/02 01:00:59;;;;;;;10.65;4.13;;;23.60;59.30;;;;;;5052516;28;20624;-72
2022/09/02 01:03:27;;;;;;;5.57;3.33;;;23.50;59.40;;;;;;5052698;28;20025;-73
2022/09/02 01:05:54;;;;;;;8.38;3.40;;;23.60;59.40;;;;;;5052439;28;20032;-72
2022/09/02 01:08:28;;;;;;;10.43;4.05;;;23.60;59.40;;;;;;5052612;28;20467;-72
2022/09/02 01:10:55;;;;;;;10.38;3.90;;;23.60;59.40;;;;;;5052545;28;20039;-72
2022/09/02 01:13:25;;;;;;;7.00;3.80;;;23.60;59.50;;;;;;5052424;28;20386;-72
2022/09/02 01:15:54;;;;;;;9.70;4.03;;;23.60;59.30;;;;;;5055008;28;20021;-72
2022/09/02 01:18:24;;;;;;;7.05;4.10;;;23.40;59.60;;;;;;5056269;28;20029;-72
2022/09/02 01:20:51;;;;;;;8.75;4.45;;;23.20;59.90;;;;;;5056303;28;20033;-73
2022/09/02 01:23:17;;;;;;;9.50;4.53;;;23.30;59.90;;;;;;5056328;28;20056;-73
2022/09/02 01:25:44;;;;;;;9.98;4.18;;;23.50;59.70;;;;;;5056046;28;20417;-72
2022/09/02 01:28:13;;;;;;;8.48;4.78;;;23.50;59.70;;;;;;5056100;28;20024;-72
2022/09/02 01:30:42;;;;;;;9.80;4.38;;;23.20;60.20;;;;;;5056259;28;20021;-72
2022/09/02 01:33:09;;;;;;;9.88;4.63;;;23.30;60.10;;;;;;5054546;28;20021;-72
2022/09/02 01:35:35;;;;;;;9.10;5.25;;;23.30;60.20;;;;;;5056355;28;20036;-73
2022/09/02 01:38:01;;;;;;;7.50;4.95;;;23.20;60.00;;;;;;5055956;28;20029;-71
2022/09/02 01:40:29;;;;;;;8.77;4.60;;;23.30;60.10;;;;;;5055711;28;20040;-73
2022/09/02 01:43:08;;;;;;;7.85;4.20;;;23.20;60.10;;;;;;5056089;28;20095;-73
2022/09/02 01:45:37;;;;;;;10.77;4.60;;;23.10;60.30;;;;;;5055776;28;20029;-72
2022/09/02 01:48:03;;;;;;;9.55;4.93;;;23.10;60.30;;;;;;5055680;28;20071;-73
2022/09/02 01:50:30;;;;;;;8.88;4.40;;;23.00;60.60;;;;;;5055765;28;20033;-72
2022/09/02 01:52:56;;;;;;;8.77;4.68;;;23.00;60.60;;;;;;5054567;28;20102;-72
2022/09/02 01:55:22;;;;;;;9.40;4.70;;;23.00;60.80;;;;;;5055589;28;20064;-70
2022/09/02 01:57:47;;;;;;;9.13;5.57;;;23.10;60.50;;;;;;5055946;28;20018;-73
2022/09/02 02:00:15;;;;;;;8.85;4.90;;;22.90;60.90;;;;;;5055393;28;20043;-72
2022/09/02 02:02:40;;;;;;;7.90;4.82;;;23.00;60.70;;;;;;5055419;28;20043;-72
2022/09/02 02:05:07;;;;;;;8.32;5.07;;;23.00;60.80;;;;;;5055549;28;20478;-72
2022/09/02 02:07:32;;;;;;;9.82;4.93;;;22.90;60.90;;;;;;5055289;28;20071;-73
2022/09/02 02:09:58;;;;;;;10.73;5.70;;;23.00;60.90;;;;;;5055339;28;20021;-72
2022/09/02 02:12:24;;;;;;;11.07;5.60;;;23.00;60.90;;;;;;5055376;28;20025;-71
2022/09/02 02:14:49;;;;;;;8.10;4.95;;;23.00;60.70;;;;;;5055424;28;20532;-73
2022/09/02 02:17:15;;;;;;;10.13;4.70;;;22.80;61.20;;;;;;5054891;28;20029;-73
2022/09/02 02:19:42;;;;;;;9.55;5.72;;;22.90;61.10;;;;;;5055478;28;20052;-71
2022/09/02 02:22:08;;;;;;;11.43;5.68;;;22.90;61.10;;;;;;5055189;28;20017;-73
2022/09/02 02:24:34;;;;;;;11.00;5.05;;;22.80;61.10;;;;;;5055256;28;20021;-73
2022/09/02 02:27:00;;;;;;;8.88;5.38;;;22.80;61.20;;;;;;5054897;28;20036;-73
2022/09/02 02:29:26;;;;;;;7.43;4.97;;;22.90;61.10;;;;;;5055051;28;20029;-73
2022/09/02 02:31:51;;;;;;;11.30;5.65;;;22.60;61.50;;;;;;5054594;28;20017;-73
2022/09/02 02:34:17;;;;;;;8.52;4.90;;;22.60;61.90;;;;;;5054987;28;20492;-73
2022/09/02 02:36:43;;;;;;;8.68;5.40;;;22.40;61.90;;;;;;5051293;28;20095;-70
2022/09/02 02:39:09;;;;;;;12.20;5.50;;;22.60;61.70;;;;;;5044529;28;20041;-72
2022/09/02 02:41:36;;;;;;;10.73;5.57;;;22.50;61.90;;;;;;5032137;28;20049;-72
2022/09/02 02:44:02;;;;;;;13.13;5.60;;;22.40;62.00;;;;;;5032897;28;20490;-73
2022/09/02 02:46:29;;;;;;;10.98;5.05;;;22.50;62.10;;;;;;5034500;28;20021;-73
2022/09/02 02:48:57;;;;;;;11.43;6.05;;;22.60;61.70;;;;;;5034930;28;20443;-74
2022/09/02 02:51:24;;;;;;;12.10;5.80;;;22.50;62.00;;;;;;5034515;28;20032;-73
2022/09/02 02:53:49;;;;;;;9.70;5.32;;;22.60;61.90;;;;;;5034602;28;20022;-72
2022/09/02 02:56:15;;;;;;;11.60;4.90;;;22.50;61.90;;;;;;5034530;28;20033;-71
2022/09/02 02:58:41;;;;;;;11.35;5.65;;;22.60;61.90;;;;;;5033272;28;20025;-73
2022/09/02 03:01:07;;;;;;;10.13;5.32;;;22.50;62.10;;;;;;5033967;28;20068;-73
2022/09/02 03:03:33;;;;;;;9.27;5.72;;;22.60;62.00;;;;;;5034426;28;20079;-72
2022/09/02 03:05:59;;;;;;;11.93;5.78;;;22.70;61.80;;;;;;5034631;28;20101;-74
2022/09/02 03:08:25;;;;;;;9.32;5.35;;;22.50;62.10;;;;;;5034307;28;20022;-72
2022/09/02 03:10:53;;;;;;;10.35;4.85;;;22.30;62.80;;;;;;5034425;28;20033;-74
2022/09/02 03:13:20;;;;;;;9.20;5.05;;;22.30;62.80;;;;;;5034280;28;20068;-73
2022/09/02 03:15:46;;;;;;;11.75;5.45;;;22.20;63.10;;;;;;5034124;28;20030;-72
2022/09/02 03:18:12;;;;;;;11.85;5.68;;;22.30;63.40;;;;;;5034079;28;20029;-73
2022/09/02 03:20:39;;;;;;;10.52;5.70;;;22.30;62.90;;;;;;5032775;28;20042;-72
2022/09/02 03:23:04;;;;;;;9.45;5.53;;;22.20;63.10;;;;;;5034214;28;20014;-72
2022/09/02 03:25:31;;;;;;;9.45;5.50;;;22.10;63.10;;;;;;5034071;28;20498;-72
2022/09/02 03:27:57;;;;;;;10.30;5.80;;;22.30;63.00;;;;;;5033999;28;20053;-73
2022/09/02 03:30:26;;;;;;;8.35;4.93;;;22.20;63.10;;;;;;5033727;28;20025;-73
2022/09/02 03:32:53;;;;;;;11.07;5.38;;;22.10;63.30;;;;;;5033880;28;20071;-73
2022/09/02 03:35:20;;;;;;;11.73;6.07;;;22.00;63.60;;;;;;5033903;28;20079;-72
2022/09/02 03:37:47;;;;;;;10.63;5.82;;;22.00;63.80;;;;;;5032066;28;20032;-65
2022/09/02 03:40:16;;;;;;;10.05;5.13;;;22.00;63.80;;;;;;5033607;28;20137;-69
2022/09/02 03:42:42;;;;;;;10.60;5.78;;;22.00;63.80;;;;;;5033590;28;20026;-72
2022/09/02 03:45:09;;;;;;;12.32;5.57;;;22.10;63.70;;;;;;5033495;28;20112;-73
2022/09/02 03:47:35;;;;;;;10.63;5.47;;;21.90;63.90;;;;;;5033581;28;20379;-71
2022/09/02 03:50:02;;;;;;;9.88;5.50;;;21.90;64.20;;;;;;5033832;28;20033;-72
2022/09/02 03:52:28;;;;;;;10.30;5.07;;;21.90;63.90;;;;;;5033529;28;20025;-66
2022/09/02 03:54:54;;;;;;;12.57;6.18;;;22.10;63.40;;;;;;5033556;28;20013;-73
2022/09/02 03:57:21;;;;;;;10.40;5.80;;;22.20;63.30;;;;;;5033405;28;20025;-73
2022/09/02 03:59:47;;;;;;;6.57;5.03;;;22.30;63.30;;;;;;5033237;28;20029;-70
2022/09/02 04:02:13;;;;;;;9.63;4.50;;;22.10;63.70;;;;;;5033389;28;20371;-73
2022/09/02 04:04:38;;;;;;;12.13;5.60;;;21.90;64.00;;;;;;5033596;28;20062;-72
2022/09/02 04:07:04;;;;;;;9.45;5.80;;;21.80;64.40;;;;;;5033548;28;20036;-71
2022/09/02 04:09:29;;;;;;;10.73;5.05;;;21.90;64.30;;;;;;5033220;28;20051;-73
2022/09/02 04:11:55;;;;;;;10.57;5.32;;;22.00;63.90;;;;;;5033312;28;20048;-71
2022/09/02 04:14:20;;;;;;;11.85;5.50;;;22.00;64.10;;;;;;5033066;28;20549;-73
2022/09/02 04:16:46;;;;;;;7.88;4.80;;;21.80;64.40;;;;;;5033187;28;20030;-73
2022/09/02 04:19:12;;;;;;;7.90;5.60;;;21.70;64.60;;;;;;5032911;28;20087;-73
2022/09/02 04:21:39;;;;;;;7.18;5.25;;;21.80;64.90;;;;;;5033300;28;20061;-73
2022/09/02 04:24:08;;;;;;;9.88;4.57;;;21.80;64.80;;;;;;5032319;28;20029;-73
2022/09/02 04:26:34;;;;;;;11.93;5.05;;;21.80;64.70;;;;;;5044112;28;20395;-73
2022/09/02 04:28:59;;;;;;;11.07;5.07;;;21.70;64.80;;;;;;5038134;28;20084;-73
2022/09/02 04:31:28;;;;;;;10.32;4.38;;;21.60;65.20;;;;;;5039980;28;20045;-73
2022/09/02 04:33:55;;;;;;;8.27;4.55;;;21.70;65.10;;;;;;5042271;28;20071;-72
2022/09/02 04:36:22;;;;;;;6.40;4.20;;;21.70;65.20;;;;;;5050756;28;20367;-72
2022/09/02 04:38:48;;;;;;;9.93;4.95;;;21.60;65.50;;;;;;5050160;28;20454;-73
2022/09/02 04:41:17;;;;;;;10.95;4.28;;;21.70;65.20;;;;;;5043841;28;20525;-72
2022/09/02 04:43:42;;;;;;;8.02;4.28;;;21.80;65.00;;;;;;5051095;28;20458;-73
2022/09/02 04:46:11;;;;;;;6.60;4.43;;;21.90;64.80;;;;;;5047133;28;20539;-73
2022/09/02 04:48:37;;;;;;;8.27;4.25;;;21.70;65.10;;;;;;5032557;28;20079;-71
2022/09/02 04:51:09;;;;;;;6.88;4.18;;;21.80;64.80;;;;;;5035045;28;20057;-72
2022/09/02 04:53:35;;;;;;;8.57;4.57;;;21.70;65.30;;;;;;5035431;28;20028;-71
2022/09/02 04:56:06;;;;;;;10.30;4.95;;;21.20;66.30;;;;;;5036791;28;20033;-71
2022/09/02 04:58:33;;;;;;;7.57;4.78;;;20.10;69.50;;;;;;5036685;28;20017;-71
2022/09/02 05:00:58;;;;;;;7.35;4.32;;;19.40;72.00;;;;;;5040060;28;20037;-65
2022/09/02 05:03:25;;;;;;;8.32;4.40;;;19.00;73.30;;;;;;5056239;28;20021;-69
2022/09/02 05:06:05;;;;;;;9.07;4.43;;;18.90;74.10;;;;;;5055285;28;20017;-70
2022/09/02 05:08:32;;;;;;;8.48;4.60;;;18.80;74.40;;;;;;5054787;28;20557;-65
2022/09/02 05:10:58;;;;;;;9.45;4.07;;;18.70;75.60;;;;;;5056289;28;20029;-73
2022/09/02 05:13:24;;;;;;;9.73;4.07;;;18.60;75.50;;;;;;5055674;28;20067;-73
2022/09/02 05:15:50;;;;;;;7.07;4.35;;;18.60;75.90;;;;;;5056462;28;20099;-73
2022/09/02 05:18:16;;;;;;;12.65;5.13;;;18.40;76.40;;;;;;5056328;28;20076;-72
2022/09/02 05:20:42;;;;;;;11.57;4.80;;;18.40;76.80;;;;;;5056182;28;20045;-71
2022/09/02 05:23:10;;;;;;;11.50;5.00;;;18.40;77.20;;;;;;5059454;28;20096;-73
2022/09/02 05:25:36;;;;;;;6.93;4.00;;;18.40;77.40;;;;;;5064054;28;20036;-71
2022/09/02 05:28:02;;;;;;;7.55;4.70;;;18.40;77.30;;;;;;5056165;28;20017;-69
2022/09/02 05:30:28;;;;;;;5.95;4.35;;;18.40;77.50;;;;;;5050549;28;20029;-71
2022/09/02 05:32:54;;;;;;;11.55;5.40;;;18.40;77.80;;;;;;5040326;28;20466;-65
2022/09/02 05:35:19;;;;;;;7.85;4.38;;;18.30;78.10;;;;;;5038287;28;20095;-66
2022/09/02 05:37:45;;;;;;;16.95;4.22;;;18.30;78.30;;;;;;5043337;28;20385;-65
2022/09/02 05:40:11;;;;;;;9.05;4.53;;;18.30;78.30;;;;;;5051344;28;20048;-73
2022/09/02 05:42:38;;;;;;;14.43;4.10;;;18.20;78.40;;;;;;5046277;28;21673;-72
2022/09/02 05:45:05;;;;;;;10.77;4.70;;;18.20;78.80;;;;;;5046315;28;20028;-72
2022/09/02 05:47:32;;;;;;;16.88;4.85;;;18.10;79.30;;;;;;5046230;28;20049;-75
2022/09/02 05:50:00;;;;;;;9.00;4.07;;;18.30;80.60;;;;;;5038120;28;20029;-73
2022/09/02 05:52:26;;;;;;;8.77;4.20;;;19.00;77.30;;;;;;5036319;28;20061;-74
2022/09/02 05:54:53;;;;;;;10.77;3.97;;;19.60;75.40;;;;;;5045732;28;20030;-74
2022/09/02 05:57:19;;;;;;;11.80;4.30;;;19.90;74.10;;;;;;5045141;28;20439;-69
2022/09/02 05:59:47;;;;;;;11.13;4.53;;;20.40;73.00;;;;;;5045234;28;20099;-74
2022/09/02 06:02:15;;;;;;;9.77;3.83;;;20.50;72.10;;;;;;5052583;28;20016;-73
2022/09/02 06:04:46;;;;;;;7.65;4.28;;;20.70;71.60;;;;;;5049290;28;20032;-74
2022/09/02 06:07:13;;;;;;;8.75;3.92;;;20.70;71.60;;;;;;5044889;28;20021;-75
2022/09/02 06:09:39;;;;;;;7.22;3.75;;;20.80;71.20;;;;;;5048372;28;20021;-70
2022/09/02 06:12:07;;;;;;;6.43;4.05;;;20.90;70.90;;;;;;5048741;28;20021;-71
2022/09/02 06:14:33;;;;;;;8.10;4.68;;;20.90;70.80;;;;;;5050617;28;20032;-72
2022/09/02 06:16:59;;;;;;;7.60;3.90;;;21.00;70.60;;;;;;5049618;28;20041;-71
2022/09/02 06:19:29;;;;;;;10.70;4.25;;;21.10;70.50;;;;;;5049402;28;20087;-78
2022/09/02 06:21:55;;;;;;;11.70;3.78;;;21.20;70.20;;;;;;5033937;28;20026;-69
2022/09/02 06:24:22;;;;;;;7.80;4.07;;;21.30;69.90;;;;;;5033460;28;20072;-70
2022/09/02 06:26:48;;;;;;;9.80;4.20;;;21.40;69.90;;;;;;5034272;28;20100;-70
2022/09/02 06:29:14;;;;;;;7.53;3.90;;;21.50;69.80;;;;;;5044163;28;20028;-73
2022/09/02 06:31:45;;;;;;;7.90;3.70;;;21.50;69.80;;;;;;5054032;28;20049;-73
2022/09/02 06:34:13;;;;;;;7.10;4.30;;;21.50;70.60;;;;;;5055169;28;20017;-73
2022/09/02 06:36:40;;;;;;;6.25;3.58;;;21.50;70.00;;;;;;5055063;28;20095;-71
2022/09/02 06:39:06;;;;;;;6.95;3.72;;;21.60;70.00;;;;;;5052692;28;20033;-72
2022/09/02 06:41:33;;;;;;;10.90;3.70;;;21.50;70.00;;;;;;5053798;28;20033;-65
2022/09/02 06:44:02;;;;;;;8.90;3.40;;;21.50;70.40;;;;;;5041530;28;20033;-66
2022/09/02 06:46:31;;;;;;;11.93;4.10;;;21.50;70.40;;;;;;5038369;28;20031;-67
2022/09/02 06:48:57;;;;;;;6.63;3.47;;;21.60;70.50;;;;;;5047796;28;20055;-66
2022/09/02 06:51:26;;;;;;;8.70;3.75;;;21.60;70.50;;;;;;5043858;28;20029;-65
2022/09/02 06:53:52;;;;;;;8.50;3.85;;;21.60;70.40;;;;;;5036459;28;20473;-73
2022/09/02 06:56:18;;;;;;;10.73;3.85;;;21.70;70.50;;;;;;5034500;28;20029;-73
2022/09/02 06:58:44;;;;;;;12.25;3.35;;;21.70;71.30;;;;;;5037396;28;20031;-72
2022/09/02 07:01:15;;;;;;;9.20;3.88;;;21.60;70.80;;;;;;5052220;28;20044;-74
2022/09/02 07:06:26;;;;;;;7.43;3.50;;;21.60;71.30;;;;;;5044745;28;20445;-71
2022/09/02 07:08:52;;;;;;;8.40;3.65;;;21.70;71.30;;;;;;5035276;28;20037;-74
2022/09/02 07:11:22;;;;;;;6.10;3.78;;;21.70;71.60;;;;;;5042322;28;20017;-73
2022/09/02 07:13:48;;;;;;;8.77;3.63;;;21.70;71.70;;;;;;5045842;28;20067;-73
2022/09/02 07:16:15;;;;;;;7.40;3.42;;;21.70;71.80;;;;;;5038057;28;20033;-72
2022/09/02 07:18:41;;;;;;;7.57;3.30;;;21.80;71.80;;;;;;5041860;28;20025;-71
2022/09/02 07:21:08;;;;;;;7.20;3.75;;;21.70;72.10;;;;;;5039528;28;20044;-72
2022/09/02 07:23:34;;;;;;;11.60;3.50;;;21.70;72.30;;;;;;5043453;28;20074;-70
2022/09/02 07:25:59;;;;;;;7.60;3.35;;;21.60;72.60;;;;;;5053715;28;20421;-71
2022/09/02 07:28:26;;;;;;;6.45;3.80;;;21.60;73.00;;;;;;5049817;28;20145;-72
2022/09/02 07:30:54;;;;;;;6.55;3.15;;;21.70;72.70;;;;;;5048271;28;20029;-72
2022/09/02 07:33:20;;;;;;;7.45;3.25;;;21.70;73.20;;;;;;5035713;28;20470;-67
2022/09/02 07:35:47;;;;;;;7.63;4.30;;;21.50;73.70;;;;;;5047320;28;20106;-73
2022/09/02 07:38:13;;;;;;;9.40;4.50;;;21.60;73.80;;;;;;5051056;28;20031;-73
2022/09/02 07:40:40;;;;;;;5.93;3.85;;;21.50;73.80;;;;;;5037777;28;20030;-74
2022/09/02 07:43:08;;;;;;;8.10;3.30;;;21.80;73.60;;;;;;5044325;28;20021;-73
2022/09/02 07:45:34;;;;;;;8.40;3.47;;;21.90;73.30;;;;;;5037484;28;20095;-74
2022/09/02 07:48:01;;;;;;;5.47;3.25;;;21.90;73.40;;;;;;5033118;28;20092;-73
2022/09/02 07:50:27;;;;;;;6.15;3.17;;;21.90;73.60;;;;;;5043964;28;20093;-74
2022/09/02 07:52:57;;;;;;;5.15;2.95;;;22.10;73.00;;;;;;5034295;28;20029;-73
2022/09/02 07:55:23;;;;;;;9.68;2.88;;;22.20;72.70;;;;;;5047789;28;20029;-64
2022/09/02 07:57:51;;;;;;;6.00;2.70;;;22.10;73.20;;;;;;5048057;28;20021;-74
2022/09/02 08:00:18;;;;;;;7.70;3.10;;;22.10;73.40;;;;;;5046991;28;20033;-65
2022/09/02 08:02:44;;;;;;;4.45;3.05;;;22.30;72.80;;;;;;5046165;28;20025;-65
2022/09/02 08:05:10;;;;;;;7.30;2.88;;;22.40;73.10;;;;;;5050890;28;20544;-66
2022/09/02 08:07:36;;;;;;;6.03;3.30;;;22.50;73.10;;;;;;5049679;28;20390;-74
2022/09/02 08:10:02;;;;;;;5.95;2.38;;;22.30;73.00;;;;;;5047044;28;20483;-74
2022/09/02 08:12:28;;;;;;;5.28;2.70;;;22.40;73.70;;;;;;5025859;28;20117;-70
2022/09/02 08:14:56;;;;;;;7.03;2.65;;;22.50;72.90;;;;;;5016830;28;20029;-72
2022/09/02 08:17:22;;;;;;;7.20;2.78;;;22.50;72.90;;;;;;5018538;28;20162;-74
2022/09/02 08:19:48;;;;;;;4.15;2.60;;;22.50;72.80;;;;;;5037826;28;20364;-72
2022/09/02 08:22:14;;;;;;;4.72;2.53;;;22.50;72.80;;;;;;5043389;28;20494;-69
2022/09/02 08:24:39;;;;;;;7.25;3.13;;;22.50;73.00;;;;;;5049697;28;20425;-71
2022/09/02 08:27:05;;;;;;;5.57;2.20;;;22.60;73.20;;;;;;5044679;28;20025;-71
2022/09/02 08:29:30;;;;;;;6.10;2.63;;;22.60;73.10;;;;;;5039786;28;20122;-70
2022/09/02 08:31:56;;;;;;;7.68;3.00;;;22.60;73.40;;;;;;5052922;28;20056;-66
2022/09/02 08:34:22;;;;;;;7.25;2.70;;;22.70;73.30;;;;;;5026851;28;20055;-70
2022/09/02 08:36:47;;;;;;;5.80;2.38;;;22.70;73.20;;;;;;5034802;28;20095;-73
2022/09/02 08:39:13;;;;;;;5.13;2.50;;;22.70;73.10;;;;;;5051163;28;20043;-72
2022/09/02 08:41:50;;;;;;;4.80;2.28;;;22.80;73.00;;;;;;5032727;28;20475;-74
2022/09/02 08:44:21;;;;;;;3.83;2.10;;;22.80;73.10;;;;;;5031304;28;20025;-68
2022/09/02 08:46:50;;;;;;;5.22;2.90;;;22.90;73.10;;;;;;5041847;28;20025;-72
2022/09/02 08:49:28;;;;;;;8.50;2.78;;;22.90;72.70;;;;;;5030938;28;20013;-65
2022/09/02 08:52:00;;;;;;;7.80;2.65;;;22.90;73.70;;;;;;5042315;28;20155;-66
2022/09/02 08:55:01;;;;;;;;;;;22.90;73.60;;;;;;5033003;28;20022;-71
2022/09/02 08:57:29;;;;;;;4.07;2.03;;;22.90;73.10;;;;;;4972451;28;19917;-72
2022/09/02 08:59:59;;;;;;;6.30;2.50;;;22.90;73.90;;;;;;5022074;28;20072;-67
2022/09/02 09:02:40;;;;;;;3.72;2.45;;;22.90;73.40;;;;;;5050069;28;20028;-73
2022/09/02 09:05:42;;;;;;;5.43;2.42;;;23.00;74.00;;;;;;5032532;28;20025;-66
2022/09/02 09:08:31;;;;;;;3.88;2.17;;;23.00;73.10;;;;;;5038591;28;20143;-76
2022/09/02 09:11:04;;;;;;;5.80;2.78;;;23.00;73.20;;;;;;5032062;28;20471;-74
2022/09/02 09:13:52;;;;;;;27.80;4.07;;;23.10;73.40;;;;;;5042206;28;20029;-64
2022/09/02 09:16:39;;;;;;;14.63;2.70;;;23.20;75.60;;;;;;5036154;28;20021;-73
2022/09/02 09:19:30;;;;;;;5.82;2.40;;;23.20;75.10;;;;;;5051321;28;20021;-65
2022/09/02 09:21:59;;;;;;;3.58;1.90;;;23.20;73.80;;;;;;5051611;28;20091;-65
2022/09/02 09:24:35;;;;;;;15.10;2.88;;;23.20;73.30;;;;;;5047564;28;20478;-72
2022/09/02 09:27:04;;;;;;;10.55;2.97;;;23.30;74.40;;;;;;5042381;28;20026;-75
2022/09/02 09:29:35;;;;;;;13.77;2.72;;;23.30;75.00;;;;;;5039137;28;20130;-78
2022/09/02 09:32:01;;;;;;;9.75;2.58;;;23.30;75.40;;;;;;5038257;28;20382;-79
2022/09/02 09:34:58;;;;;;;4.95;2.35;;;23.30;74.80;;;;;;5042131;28;20498;-77
2022/09/02 09:37:39;;;;;;;6.90;2.50;;;23.40;73.30;;;;;;5044335;28;20059;-73
2022/09/02 09:40:23;;;;;;;7.82;2.35;;;23.40;75.00;;;;;;5052802;28;20028;-71
2022/09/02 09:43:04;;;;;;;9.20;2.35;;;23.60;74.30;;;;;;5036357;28;20076;-71
2022/09/02 09:45:36;;;;;;;6.10;2.40;;;23.70;73.60;;;;;;5047556;28;20064;-74
2022/09/02 09:48:22;;;;;;;4.20;2.13;;;23.60;72.60;;;;;;5055426;28;20114;-75
2022/09/02 09:50:54;;;;;;;2.90;2.17;;;23.70;72.50;;;;;;5050772;28;20021;-75
2022/09/02 09:53:26;;;;;;;4.97;2.47;;;23.60;72.60;;;;;;5052941;28;20033;-74
2022/09/02 09:56:04;;;;;;;9.52;3.20;;;23.50;73.00;;;;;;5042131;28;20029;-75
2022/09/02 09:58:38;;;;;;;4.05;2.03;;;23.60;76.40;;;;;;5043477;28;20108;-75
2022/09/02 10:01:28;;;;;;;4.38;2.50;;;23.80;76.60;;;;;;5051658;28;20032;-74
2022/09/02 10:04:00;;;;;;;6.57;2.67;;;23.70;73.40;;;;;;5049403;28;20025;-72
2022/09/02 10:06:32;;;;;;;;;;;23.60;73.30;;;;;;5053529;28;20021;-72
2022/09/02 10:09:26;;;;;;;4.20;2.88;;;23.80;73.40;;;;;;5041485;28;20590;-72
2022/09/02 10:11:57;;;;;;;8.95;2.55;;;23.70;72.80;;;;;;5031609;28;20038;-72
2022/09/02 10:14:32;;;;;;;5.68;1.90;;;23.90;73.80;;;;;;5053603;28;20029;-72
2022/09/02 10:17:29;;;;;;;5.38;2.38;;;23.80;73.10;;;;;;5048124;28;20017;-72
2022/09/02 10:20:30;;;;;;;4.75;2.30;;;23.90;73.70;;;;;;5043370;28;20029;-72
2022/09/02 10:23:04;;;;;;;4.45;2.40;;;23.90;72.70;;;;;;5037307;28;20034;-73
2022/09/02 10:25:48;;;;;;;4.05;2.40;;;24.00;72.60;;;;;;5051966;28;20025;-72
2022/09/02 10:28:20;;;;;;;4.28;2.70;;;24.10;72.40;;;;;;5048985;28;20025;-73
2022/09/02 10:30:48;;;;;;;4.90;2.22;;;24.10;72.10;;;;;;5040639;28;20431;-75
2022/09/02 10:33:22;;;;;;;4.75;2.13;;;24.10;71.90;;;;;;5042523;28;20474;-74
2022/09/02 10:36:02;;;;;;;5.82;2.45;;;24.10;71.90;;;;;;5043128;28;20025;-71
2022/09/02 10:38:43;;;;;;;3.83;2.35;;;24.10;72.90;;;;;;5036123;28;20029;-72
2022/09/02 10:41:30;;;;;;;4.40;2.45;;;24.20;72.50;;;;;;5043822;28;20029;-72
2022/09/02 10:44:11;;;;;;;4.63;2.20;;;24.10;71.90;;;;;;5050456;28;20025;-71
2022/09/02 10:46:58;;;;;;;6.18;2.22;;;24.00;72.40;;;;;;5044264;28;20040;-71
2022/09/02 10:49:55;;;;;;;3.20;1.95;;;23.80;72.90;;;;;;5043532;28;20029;-71
2022/09/02 10:52:50;;;;;;;2.47;2.13;;;23.70;73.00;;;;;;5046416;28;20040;-72
2022/09/02 10:55:40;;;;;;;3.38;2.10;;;23.70;72.30;;;;;;5048730;28;20369;-71
2022/09/02 10:58:24;;;;;;;4.53;2.40;;;23.70;73.10;;;;;;5050369;28;20021;-71
2022/09/02 11:00:53;;;;;;;5.05;2.38;;;23.70;73.00;;;;;;5042494;28;21152;-72
2022/09/02 11:03:53;;;;;;;2.50;2.30;;;23.80;73.70;;;;;;5044731;28;20100;-71
2022/09/02 11:06:29;;;;;;;4.25;2.35;;;24.00;73.50;;;;;;5017718;28;20040;-71
2022/09/02 11:09:05;;;;;;;2.90;2.38;;;24.00;72.40;;;;;;5048018;28;20371;-71
2022/09/02 11:11:51;;;;;;;3.58;2.28;;;24.00;72.20;;;;;;5055233;28;20058;-71
2022/09/02 11:14:33;;;;;;;3.80;2.20;;;24.00;71.40;;;;;;5040397;28;20110;-72
2022/09/02 11:17:09;;;;;;;3.28;2.25;;;24.00;72.10;;;;;;5039180;28;20056;-71
2022/09/02 11:19:48;;;;;;;3.25;1.90;;;24.00;71.50;;;;;;5042767;28;20098;-72
2022/09/02 11:22:32;;;;;;;6.28;2.30;;;24.00;70.50;;;;;;5056090;28;20504;-71
2022/09/02 11:25:41;;;;;;;4.93;2.70;;;24.00;72.50;;;;;;5038579;28;20024;-71
2022/09/02 11:28:34;;;;;;;5.43;2.40;;;24.10;72.20;;;;;;5005897;28;20033;-72
2022/09/02 11:31:00;;;;;;;6.55;3.45;;;24.30;73.30;;;;;;5036005;28;20055;-71
2022/09/02 11:33:42;;;;;;;8.07;2.50;;;24.40;74.70;;;;;;5039129;28;20364;-74
2022/09/02 11:36:08;;;;;;;1.92;1.58;;;24.50;69.00;;;;;;5040204;28;21149;-71
2022/09/02 11:38:53;;;;;;;1.55;1.20;;;24.40;66.60;;;;;;5039184;28;20033;-72
2022/09/02 11:41:31;;;;;;;4.50;1.70;;;24.30;66.80;;;;;;5045777;28;20036;-70
2022/09/02 11:44:13;;;;;;;2.00;1.50;;;24.40;68.50;;;;;;5044733;28;20034;-72
2022/09/02 11:46:58;;;;;;;2.55;1.30;;;24.20;68.20;;;;;;5044424;28;20383;-75
2022/09/02 11:49:59;;;;;;;4.95;1.60;;;24.20;68.00;;;;;;5046931;28;20032;-76
2022/09/02 11:52:52;;;;;;;1.85;1.40;;;24.30;69.00;;;;;;5025208;28;20037;-75
2022/09/02 11:55:29;;;;;;;3.33;1.50;;;24.50;67.30;;;;;;5035823;28;20032;-74
2022/09/02 11:57:59;;;;;;;3.90;1.65;;;24.60;66.70;;;;;;5046134;28;20558;-72
2022/09/02 12:00:31;;;;;;;4.85;1.80;;;24.60;66.10;;;;;;5046615;28;20033;-72
2022/09/02 12:03:09;;;;;;;6.28;2.10;;;24.80;66.90;;;;;;5040785;28;20028;-74
2022/09/02 12:05:36;;;;;;;4.22;1.50;;;24.90;68.00;;;;;;5050611;28;21040;-74
2022/09/02 12:08:27;;;;;;;5.00;1.80;;;25.00;66.20;;;;;;5060426;28;20028;-74
2022/09/02 12:10:58;;;;;;;2.80;1.48;;;24.90;65.40;;;;;;5048738;28;20482;-75
2022/09/02 12:13:39;;;;;;;3.47;1.25;;;24.90;65.00;;;;;;5056578;28;20758;-74
2022/09/02 12:16:14;;;;;;;4.80;1.70;;;24.90;64.50;;;;;;5048307;28;20025;-74
2022/09/02 12:18:45;;;;;;;4.13;1.40;;;24.90;65.00;;;;;;5051897;28;20051;-74
2022/09/02 12:21:13;;;;;;;2.50;1.20;;;25.00;64.20;;;;;;5045388;28;20122;-74
2022/09/02 12:23:48;;;;;;;2.10;1.38;;;25.10;64.30;;;;;;5049274;28;20036;-75
2022/09/02 12:26:27;;;;;;;2.28;1.30;;;25.00;64.00;;;;;;5042782;28;20137;-74
2022/09/02 12:29:09;;;;;;;2.72;1.23;;;25.10;64.40;;;;;;5039691;28;20113;-76
2022/09/02 12:31:51;;;;;;;3.15;1.30;;;25.20;64.30;;;;;;5045065;28;20065;-75
2022/09/02 12:34:20;;;;;;;2.50;1.30;;;25.20;65.20;;;;;;5046497;28;20036;-74
2022/09/02 12:37:02;;;;;;;2.58;1.35;;;25.30;65.10;;;;;;5039199;28;20017;-75
2022/09/02 12:39:27;;;;;;;6.18;1.55;;;25.40;65.10;;;;;;5049078;28;20144;-77
2022/09/02 12:42:22;;;;;;;7.93;1.50;;;25.40;63.90;;;;;;5049630;28;20116;-77
2022/09/02 12:45:06;;;;;;;4.20;1.25;;;25.30;62.80;;;;;;5039858;28;20668;-74
2022/09/02 12:47:59;;;;;;;3.58;1.58;;;25.30;65.30;;;;;;5043320;28;20048;-74
2022/09/02 12:50:26;;;;;;;5.63;1.48;;;25.30;63.80;;;;;;5048488;28;20025;-74
2022/09/02 12:53:23;;;;;;;2.25;1.30;;;25.30;64.10;;;;;;5048028;28;20174;-74
2022/09/02 12:56:12;;;;;;;2.55;1.05;;;25.30;61.50;;;;;;5042132;28;20079;-74
2022/09/02 12:58:46;;;;;;;6.32;1.40;;;25.30;64.00;;;;;;5048263;28;20029;-75
2022/09/02 13:01:54;;;;;;;2.97;1.52;;;25.40;64.30;;;;;;5049728;28;20040;-75
2022/09/02 13:04:29;;;;;;;2.00;1.08;;;25.40;63.80;;;;;;5031885;28;20037;-75
2022/09/02 13:07:19;;;;;;;4.85;1.27;;;25.50;61.20;;;;;;5044971;28;20129;-73
2022/09/02 13:10:08;;;;;;;2.80;1.13;;;25.40;63.70;;;;;;5040796;28;20405;-72